sensor_id;sensor_type;location;lat;lon;timestamp;temperature;humidity
74376;HTU21D;62812;55.188;61.302;2022-11-20T00:02:03;-11.90;72.89
74376;HTU21D;62812;55.188;61.302;2022-11-20T00:04:29;-11.93;72.72
74376;HTU21D;62812;55.188;61.302;2022-11-20T00:06:56;-11.95;72.80
74376;HTU21D;62812;55.188;61.302;2022-11-20T00:09:22;-11.96;72.81
74376;HTU21D;62812;55.188;61.302;2022-11-20T00:11:49;-11.95;72.78
74376;HTU21D;62812;55.188;61.302;2022-11-20T00:14:15;-11.96;72.83
74376;HTU21D;62812;55.188;61.302;2022-11-20T00:16:43;-11.97;72.62
74376;HTU21D;62812;55.188;61.302;2022-11-20T00:19:09;-11.99;72.73
74376;HTU21D;62812;55.188;61.302;2022-11-20T00:21:36;-11.99;72.69
74376;HTU21D;62812;55.188;61.302;2022-11-20T00:24:02;-12.01;72.50
74376;HTU21D;62812;55.188;61.302;2022-11-20T00:26:29;-12.04;72.60
74376;HTU21D;62812;55.188;61.302;2022-11-20T00:28:57;-12.07;72.35
74376;HTU21D;62812;55.188;61.302;2022-11-20T00:31:23;-12.08;72.58
74376;HTU21D;62812;55.188;61.302;2022-11-20T00:33:52;-12.10;72.43
74376;HTU21D;62812;55.188;61.302;2022-11-20T00:36:20;-12.10;72.28
74376;HTU21D;62812;55.188;61.302;2022-11-20T00:38:47;-12.10;72.11
74376;HTU21D;62812;55.188;61.302;2022-11-20T00:41:16;-12.10;72.08
74376;HTU21D;62812;55.188;61.302;2022-11-20T00:43:43;-12.11;71.75
74376;HTU21D;62812;55.188;61.302;2022-11-20T00:46:13;-12.12;71.77
74376;HTU21D;62812;55.188;61.302;2022-11-20T00:48:40;-12.17;71.86
74376;HTU21D;62812;55.188;61.302;2022-11-20T00:51:08;-12.20;71.93
74376;HTU21D;62812;55.188;61.302;2022-11-20T00:53:34;-12.25;71.90
74376;HTU21D;62812;55.188;61.302;2022-11-20T00:56:03;-12.30;72.29
74376;HTU21D;62812;55.188;61.302;2022-11-20T00:58:31;-12.34;72.29
74376;HTU21D;62812;55.188;61.302;2022-11-20T01:01:02;-12.36;72.35
74376;HTU21D;62812;55.188;61.302;2022-11-20T01:03:31;-12.33;72.27
74376;HTU21D;62812;55.188;61.302;2022-11-20T01:06:00;-12.34;72.13
74376;HTU21D;62812;55.188;61.302;2022-11-20T01:08:30;-12.33;72.01
74376;HTU21D;62812;55.188;61.302;2022-11-20T01:11:01;-12.38;71.87
74376;HTU21D;62812;55.188;61.302;2022-11-20T01:13:28;-12.38;71.77
74376;HTU21D;62812;55.188;61.302;2022-11-20T01:16:05;-12.43;71.92
74376;HTU21D;62812;55.188;61.302;2022-11-20T01:18:32;-12.43;71.92
74376;HTU21D;62812;55.188;61.302;2022-11-20T01:21:01;-12.47;71.86
74376;HTU21D;62812;55.188;61.302;2022-11-20T01:23:32;-12.48;71.90
74376;HTU21D;62812;55.188;61.302;2022-11-20T01:26:00;-12.53;71.93
74376;HTU21D;62812;55.188;61.302;2022-11-20T01:28:28;-12.54;72.00
74376;HTU21D;62812;55.188;61.302;2022-11-20T01:30:55;-12.55;71.82
74376;HTU21D;62812;55.188;61.302;2022-11-20T01:33:22;-12.57;71.93
74376;HTU21D;62812;55.188;61.302;2022-11-20T01:35:49;-12.57;71.79
74376;HTU21D;62812;55.188;61.302;2022-11-20T01:38:18;-12.64;71.73
74376;HTU21D;62812;55.188;61.302;2022-11-20T01:40:53;-12.63;71.71
74376;HTU21D;62812;55.188;61.302;2022-11-20T01:43:20;-12.66;71.79
74376;HTU21D;62812;55.188;61.302;2022-11-20T01:45:56;-12.65;71.51
74376;HTU21D;62812;55.188;61.302;2022-11-20T01:48:26;-12.65;71.46
74376;HTU21D;62812;55.188;61.302;2022-11-20T01:50:53;-12.71;71.72
74376;HTU21D;62812;55.188;61.302;2022-11-20T01:53:23;-12.74;71.86
74376;HTU21D;62812;55.188;61.302;2022-11-20T01:55:53;-12.77;71.96
74376;HTU21D;62812;55.188;61.302;2022-11-20T01:58:24;-12.79;71.95
74376;HTU21D;62812;55.188;61.302;2022-11-20T02:00:53;-12.86;72.03
74376;HTU21D;62812;55.188;61.302;2022-11-20T02:03:20;-12.87;72.03
74376;HTU21D;62812;55.188;61.302;2022-11-20T02:05:49;-12.92;72.00
74376;HTU21D;62812;55.188;61.302;2022-11-20T02:08:16;-12.97;72.45
74376;HTU21D;62812;55.188;61.302;2022-11-20T02:10:43;-12.97;72.47
74376;HTU21D;62812;55.188;61.302;2022-11-20T02:13:11;-12.99;72.29
74376;HTU21D;62812;55.188;61.302;2022-11-20T02:15:56;-12.96;72.42
74376;HTU21D;62812;55.188;61.302;2022-11-20T02:18:23;-12.99;72.14
74376;HTU21D;62812;55.188;61.302;2022-11-20T02:20:54;-13.00;72.37
74376;HTU21D;62812;55.188;61.302;2022-11-20T02:23:27;-13.00;72.30
74376;HTU21D;62812;55.188;61.302;2022-11-20T02:25:57;-12.98;72.21
74376;HTU21D;62812;55.188;61.302;2022-11-20T02:28:24;-12.99;71.87
74376;HTU21D;62812;55.188;61.302;2022-11-20T02:30:50;-12.97;71.84
74376;HTU21D;62812;55.188;61.302;2022-11-20T02:33:17;-12.95;71.71
74376;HTU21D;62812;55.188;61.302;2022-11-20T02:35:43;-12.95;71.63
74376;HTU21D;62812;55.188;61.302;2022-11-20T02:38:10;-12.97;71.43
74376;HTU21D;62812;55.188;61.302;2022-11-20T02:40:37;-12.95;71.41
74376;HTU21D;62812;55.188;61.302;2022-11-20T02:43:05;-12.96;71.66
74376;HTU21D;62812;55.188;61.302;2022-11-20T02:45:32;-12.97;71.48
74376;HTU21D;62812;55.188;61.302;2022-11-20T02:47:58;-13.02;71.66
74376;HTU21D;62812;55.188;61.302;2022-11-20T02:50:25;-13.07;71.84
74376;HTU21D;62812;55.188;61.302;2022-11-20T02:52:51;-13.10;72.23
74376;HTU21D;62812;55.188;61.302;2022-11-20T02:55:18;-13.08;72.06
74376;HTU21D;62812;55.188;61.302;2022-11-20T02:57:45;-13.04;71.71
74376;HTU21D;62812;55.188;61.302;2022-11-20T03:00:15;-13.03;71.65
74376;HTU21D;62812;55.188;61.302;2022-11-20T03:02:42;-13.04;71.80
74376;HTU21D;62812;55.188;61.302;2022-11-20T03:05:08;-13.09;71.92
74376;HTU21D;62812;55.188;61.302;2022-11-20T03:07:34;-13.12;71.82
74376;HTU21D;62812;55.188;61.302;2022-11-20T03:10:01;-13.08;72.00
74376;HTU21D;62812;55.188;61.302;2022-11-20T03:12:28;-13.06;71.87
74376;HTU21D;62812;55.188;61.302;2022-11-20T03:14:55;-13.06;71.96
74376;HTU21D;62812;55.188;61.302;2022-11-20T03:17:23;-13.09;71.84
74376;HTU21D;62812;55.188;61.302;2022-11-20T03:19:50;-13.08;71.65
74376;HTU21D;62812;55.188;61.302;2022-11-20T03:22:16;-13.09;71.55
74376;HTU21D;62812;55.188;61.302;2022-11-20T03:24:42;-13.13;71.61
74376;HTU21D;62812;55.188;61.302;2022-11-20T03:27:09;-13.17;71.48
74376;HTU21D;62812;55.188;61.302;2022-11-20T03:29:35;-13.19;71.57
74376;HTU21D;62812;55.188;61.302;2022-11-20T03:32:01;-13.17;72.08
74376;HTU21D;62812;55.188;61.302;2022-11-20T03:34:29;-13.16;71.61
74376;HTU21D;62812;55.188;61.302;2022-11-20T03:36:56;-13.18;71.19
74376;HTU21D;62812;55.188;61.302;2022-11-20T03:39:22;-13.16;71.33
74376;HTU21D;62812;55.188;61.302;2022-11-20T03:41:48;-13.17;71.20
74376;HTU21D;62812;55.188;61.302;2022-11-20T03:44:15;-13.11;71.01
74376;HTU21D;62812;55.188;61.302;2022-11-20T03:46:41;-13.08;70.90
74376;HTU21D;62812;55.188;61.302;2022-11-20T03:49:07;-13.14;70.69
74376;HTU21D;62812;55.188;61.302;2022-11-20T03:51:36;-13.13;70.74
74376;HTU21D;62812;55.188;61.302;2022-11-20T03:54:04;-13.13;70.63
74376;HTU21D;62812;55.188;61.302;2022-11-20T03:56:33;-13.16;70.46
74376;HTU21D;62812;55.188;61.302;2022-11-20T03:58:59;-13.11;70.74
74376;HTU21D;62812;55.188;61.302;2022-11-20T04:01:27;-13.09;70.93
74376;HTU21D;62812;55.188;61.302;2022-11-20T04:03:55;-13.04;69.99
74376;HTU21D;62812;55.188;61.302;2022-11-20T04:06:24;-13.04;70.04
74376;HTU21D;62812;55.188;61.302;2022-11-20T04:08:54;-12.97;70.16
74376;HTU21D;62812;55.188;61.302;2022-11-20T04:11:21;-12.92;69.89
74376;HTU21D;62812;55.188;61.302;2022-11-20T04:13:50;-12.88;69.65
74376;HTU21D;62812;55.188;61.302;2022-11-20T04:16:17;-12.82;69.84
74376;HTU21D;62812;55.188;61.302;2022-11-20T04:18:44;-12.71;69.55
74376;HTU21D;62812;55.188;61.302;2022-11-20T04:21:11;-12.62;69.12
74376;HTU21D;62812;55.188;61.302;2022-11-20T04:23:38;-12.54;69.09
74376;HTU21D;62812;55.188;61.302;2022-11-20T04:26:07;-12.52;69.01
74376;HTU21D;62812;55.188;61.302;2022-11-20T04:28:35;-12.48;69.04
74376;HTU21D;62812;55.188;61.302;2022-11-20T04:31:01;-12.50;68.39
74376;HTU21D;62812;55.188;61.302;2022-11-20T04:33:28;-12.48;68.81
74376;HTU21D;62812;55.188;61.302;2022-11-20T04:35:54;-12.41;68.98
74376;HTU21D;62812;55.188;61.302;2022-11-20T04:38:21;-12.45;68.42
74376;HTU21D;62812;55.188;61.302;2022-11-20T04:40:47;-12.40;68.30
74376;HTU21D;62812;55.188;61.302;2022-11-20T04:43:15;-12.37;68.70
74376;HTU21D;62812;55.188;61.302;2022-11-20T04:45:42;-12.33;68.46
74376;HTU21D;62812;55.188;61.302;2022-11-20T04:48:08;-12.27;68.55
74376;HTU21D;62812;55.188;61.302;2022-11-20T04:50:39;-12.20;68.09
74376;HTU21D;62812;55.188;61.302;2022-11-20T04:53:06;-12.14;67.62
74376;HTU21D;62812;55.188;61.302;2022-11-20T04:55:32;-12.17;68.10
74376;HTU21D;62812;55.188;61.302;2022-11-20T04:57:58;-12.22;67.68
74376;HTU21D;62812;55.188;61.302;2022-11-20T05:00:26;-12.19;67.97
74376;HTU21D;62812;55.188;61.302;2022-11-20T05:02:52;-12.17;68.17
74376;HTU21D;62812;55.188;61.302;2022-11-20T05:05:19;-12.12;67.73
74376;HTU21D;62812;55.188;61.302;2022-11-20T05:07:45;-12.09;68.18
74376;HTU21D;62812;55.188;61.302;2022-11-20T05:10:13;-11.93;67.74
74376;HTU21D;62812;55.188;61.302;2022-11-20T05:12:39;-11.94;67.43
74376;HTU21D;62812;55.188;61.302;2022-11-20T05:15:07;-11.92;66.77
74376;HTU21D;62812;55.188;61.302;2022-11-20T05:17:34;-11.82;68.14
74376;HTU21D;62812;55.188;61.302;2022-11-20T05:20:01;-11.73;67.40
74376;HTU21D;62812;55.188;61.302;2022-11-20T05:22:28;-11.75;67.17
74376;HTU21D;62812;55.188;61.302;2022-11-20T05:24:54;-11.76;66.66
74376;HTU21D;62812;55.188;61.302;2022-11-20T05:27:20;-11.77;66.83
74376;HTU21D;62812;55.188;61.302;2022-11-20T05:29:47;-11.70;66.72
74376;HTU21D;62812;55.188;61.302;2022-11-20T05:32:13;-11.69;67.31
74376;HTU21D;62812;55.188;61.302;2022-11-20T05:34:41;-11.60;68.04
74376;HTU21D;62812;55.188;61.302;2022-11-20T05:37:08;-11.54;66.17
74376;HTU21D;62812;55.188;61.302;2022-11-20T05:39:34;-11.52;66.58
74376;HTU21D;62812;55.188;61.302;2022-11-20T05:42:00;-11.56;66.18
74376;HTU21D;62812;55.188;61.302;2022-11-20T05:44:45;-11.49;66.60
74376;HTU21D;62812;55.188;61.302;2022-11-20T05:47:11;-11.46;66.54
74376;HTU21D;62812;55.188;61.302;2022-11-20T05:49:38;-11.45;66.33
74376;HTU21D;62812;55.188;61.302;2022-11-20T05:52:06;-11.29;67.00
74376;HTU21D;62812;55.188;61.302;2022-11-20T05:54:32;-11.21;65.84
74376;HTU21D;62812;55.188;61.302;2022-11-20T05:56:59;-11.19;65.88
74376;HTU21D;62812;55.188;61.302;2022-11-20T05:59:25;-11.22;65.98
74376;HTU21D;62812;55.188;61.302;2022-11-20T06:01:52;-11.29;65.84
74376;HTU21D;62812;55.188;61.302;2022-11-20T06:04:18;-11.31;66.24
74376;HTU21D;62812;55.188;61.302;2022-11-20T06:06:44;-11.32;66.18
74376;HTU21D;62812;55.188;61.302;2022-11-20T06:09:12;-11.25;67.25
74376;HTU21D;62812;55.188;61.302;2022-11-20T06:11:39;-11.24;66.40
74376;HTU21D;62812;55.188;61.302;2022-11-20T06:14:05;-11.12;66.36
74376;HTU21D;62812;55.188;61.302;2022-11-20T06:16:32;-11.06;65.34
74376;HTU21D;62812;55.188;61.302;2022-11-20T06:18:58;-11.08;65.71
74376;HTU21D;62812;55.188;61.302;2022-11-20T06:21:24;-11.08;66.10
74376;HTU21D;62812;55.188;61.302;2022-11-20T06:23:52;-11.05;66.01
74376;HTU21D;62812;55.188;61.302;2022-11-20T06:26:23;-11.11;65.76
74376;HTU21D;62812;55.188;61.302;2022-11-20T06:28:50;-11.11;66.33
74376;HTU21D;62812;55.188;61.302;2022-11-20T06:31:20;-11.12;66.24
74376;HTU21D;62812;55.188;61.302;2022-11-20T06:33:48;-11.14;66.37
74376;HTU21D;62812;55.188;61.302;2022-11-20T06:36:16;-11.17;66.46
74376;HTU21D;62812;55.188;61.302;2022-11-20T06:38:44;-11.19;66.34
74376;HTU21D;62812;55.188;61.302;2022-11-20T06:41:12;-11.16;66.39
74376;HTU21D;62812;55.188;61.302;2022-11-20T06:43:41;-11.14;66.37
74376;HTU21D;62812;55.188;61.302;2022-11-20T06:46:09;-11.17;66.68
74376;HTU21D;62812;55.188;61.302;2022-11-20T06:48:36;-11.12;66.56
74376;HTU21D;62812;55.188;61.302;2022-11-20T06:51:03;-11.15;66.69
74376;HTU21D;62812;55.188;61.302;2022-11-20T06:53:30;-11.12;66.78
74376;HTU21D;62812;55.188;61.302;2022-11-20T06:55:57;-11.12;66.80
74376;HTU21D;62812;55.188;61.302;2022-11-20T06:58:27;-11.07;67.01
74376;HTU21D;62812;55.188;61.302;2022-11-20T07:00:59;-11.07;67.05
74376;HTU21D;62812;55.188;61.302;2022-11-20T07:03:26;-11.03;67.21
74376;HTU21D;62812;55.188;61.302;2022-11-20T07:05:54;-11.02;67.36
74376;HTU21D;62812;55.188;61.302;2022-11-20T07:08:21;-10.99;67.28
74376;HTU21D;62812;55.188;61.302;2022-11-20T07:10:47;-10.91;67.36
74376;HTU21D;62812;55.188;61.302;2022-11-20T07:13:14;-10.86;67.20
74376;HTU21D;62812;55.188;61.302;2022-11-20T07:15:40;-10.79;67.09
74376;HTU21D;62812;55.188;61.302;2022-11-20T07:18:09;-10.75;66.51
74376;HTU21D;62812;55.188;61.302;2022-11-20T07:20:36;-10.75;66.56
74376;HTU21D;62812;55.188;61.302;2022-11-20T07:23:02;-10.75;66.86
74376;HTU21D;62812;55.188;61.302;2022-11-20T07:25:29;-10.66;67.04
74376;HTU21D;62812;55.188;61.302;2022-11-20T07:27:57;-10.64;67.01
74376;HTU21D;62812;55.188;61.302;2022-11-20T07:30:24;-10.57;66.94
74376;HTU21D;62812;55.188;61.302;2022-11-20T07:32:51;-10.55;66.80
74376;HTU21D;62812;55.188;61.302;2022-11-20T07:35:19;-10.53;66.74
74376;HTU21D;62812;55.188;61.302;2022-11-20T07:37:47;-10.50;67.56
74376;HTU21D;62812;55.188;61.302;2022-11-20T07:40:15;-10.43;66.84
74376;HTU21D;62812;55.188;61.302;2022-11-20T07:42:47;-10.40;67.61
74376;HTU21D;62812;55.188;61.302;2022-11-20T07:45:14;-10.30;66.88
74376;HTU21D;62812;55.188;61.302;2022-11-20T07:47:40;-10.22;67.05
74376;HTU21D;62812;55.188;61.302;2022-11-20T07:50:07;-10.19;66.81
74376;HTU21D;62812;55.188;61.302;2022-11-20T07:52:36;-10.10;66.56
74376;HTU21D;62812;55.188;61.302;2022-11-20T07:55:02;-10.04;66.33
74376;HTU21D;62812;55.188;61.302;2022-11-20T07:57:29;-10.07;66.07
74376;HTU21D;62812;55.188;61.302;2022-11-20T07:59:56;-10.07;66.49
74376;HTU21D;62812;55.188;61.302;2022-11-20T08:02:23;-10.05;66.16
74376;HTU21D;62812;55.188;61.302;2022-11-20T08:04:50;-10.01;65.82
74376;HTU21D;62812;55.188;61.302;2022-11-20T08:07:16;-9.93;66.37
74376;HTU21D;62812;55.188;61.302;2022-11-20T08:09:44;-9.89;66.21
74376;HTU21D;62812;55.188;61.302;2022-11-20T08:12:17;-9.85;66.06
74376;HTU21D;62812;55.188;61.302;2022-11-20T08:15:04;-9.79;65.94
74376;HTU21D;62812;55.188;61.302;2022-11-20T08:17:31;-9.73;65.88
74376;HTU21D;62812;55.188;61.302;2022-11-20T08:19:58;-9.67;65.58
74376;HTU21D;62812;55.188;61.302;2022-11-20T08:22:24;-9.69;65.39
74376;HTU21D;62812;55.188;61.302;2022-11-20T08:24:53;-9.64;65.54
74376;HTU21D;62812;55.188;61.302;2022-11-20T08:27:19;-9.62;65.88
74376;HTU21D;62812;55.188;61.302;2022-11-20T08:29:45;-9.53;65.63
74376;HTU21D;62812;55.188;61.302;2022-11-20T08:32:12;-9.44;65.66
74376;HTU21D;62812;55.188;61.302;2022-11-20T08:34:38;-9.38;65.00
74376;HTU21D;62812;55.188;61.302;2022-11-20T08:37:05;-9.31;65.33
74376;HTU21D;62812;55.188;61.302;2022-11-20T08:39:31;-9.28;64.88
74376;HTU21D;62812;55.188;61.302;2022-11-20T08:41:59;-9.22;64.82
74376;HTU21D;62812;55.188;61.302;2022-11-20T08:44:25;-9.17;64.79
74376;HTU21D;62812;55.188;61.302;2022-11-20T08:46:52;-9.14;64.88
74376;HTU21D;62812;55.188;61.302;2022-11-20T08:49:18;-9.10;64.88
74376;HTU21D;62812;55.188;61.302;2022-11-20T08:51:44;-9.04;64.92
74376;HTU21D;62812;55.188;61.302;2022-11-20T08:54:13;-9.00;64.79
74376;HTU21D;62812;55.188;61.302;2022-11-20T08:56:39;-8.98;64.72
74376;HTU21D;62812;55.188;61.302;2022-11-20T08:59:07;-8.94;64.73
74376;HTU21D;62812;55.188;61.302;2022-11-20T09:01:33;-8.98;64.44
74376;HTU21D;62812;55.188;61.302;2022-11-20T09:04:00;-8.99;64.08
74376;HTU21D;62812;55.188;61.302;2022-11-20T09:06:26;-9.03;64.46
74376;HTU21D;62812;55.188;61.302;2022-11-20T09:08:53;-8.96;65.26
74376;HTU21D;62812;55.188;61.302;2022-11-20T09:11:20;-8.90;64.38
74376;HTU21D;62812;55.188;61.302;2022-11-20T09:13:46;-8.89;63.99
74376;HTU21D;62812;55.188;61.302;2022-11-20T09:16:14;-8.90;63.85
74376;HTU21D;62812;55.188;61.302;2022-11-20T09:18:40;-8.93;64.33
74376;HTU21D;62812;55.188;61.302;2022-11-20T09:21:10;-8.97;64.51
74376;HTU21D;62812;55.188;61.302;2022-11-20T09:23:40;-8.96;64.30
74376;HTU21D;62812;55.188;61.302;2022-11-20T09:26:09;-8.94;64.22
74376;HTU21D;62812;55.188;61.302;2022-11-20T09:28:35;-8.95;64.23
74376;HTU21D;62812;55.188;61.302;2022-11-20T09:31:05;-8.97;64.47
74376;HTU21D;62812;55.188;61.302;2022-11-20T09:33:33;-8.96;64.62
74376;HTU21D;62812;55.188;61.302;2022-11-20T09:36:02;-8.97;64.59
74376;HTU21D;62812;55.188;61.302;2022-11-20T09:38:29;-8.93;64.45
74376;HTU21D;62812;55.188;61.302;2022-11-20T09:40:58;-8.95;64.69
74376;HTU21D;62812;55.188;61.302;2022-11-20T09:43:37;-8.99;64.98
74376;HTU21D;62812;55.188;61.302;2022-11-20T09:46:12;-8.97;65.05
74376;HTU21D;62812;55.188;61.302;2022-11-20T09:48:52;-8.92;65.10
74376;HTU21D;62812;55.188;61.302;2022-11-20T09:51:31;-8.90;65.09
74376;HTU21D;62812;55.188;61.302;2022-11-20T09:54:06;-8.89;65.11
74376;HTU21D;62812;55.188;61.302;2022-11-20T09:56:38;-8.92;65.24
74376;HTU21D;62812;55.188;61.302;2022-11-20T09:59:07;-8.93;65.21
74376;HTU21D;62812;55.188;61.302;2022-11-20T10:01:38;-8.90;65.41
74376;HTU21D;62812;55.188;61.302;2022-11-20T10:04:12;-8.88;65.27
74376;HTU21D;62812;55.188;61.302;2022-11-20T10:06:43;-8.89;65.27
74376;HTU21D;62812;55.188;61.302;2022-11-20T10:09:20;-8.87;65.41
74376;HTU21D;62812;55.188;61.302;2022-11-20T10:11:56;-8.81;65.21
74376;HTU21D;62812;55.188;61.302;2022-11-20T10:14:30;-8.79;65.22
74376;HTU21D;62812;55.188;61.302;2022-11-20T10:17:03;-8.78;65.01
74376;HTU21D;62812;55.188;61.302;2022-11-20T10:19:50;-8.79;64.95
74376;HTU21D;62812;55.188;61.302;2022-11-20T10:22:30;-8.81;64.95
74376;HTU21D;62812;55.188;61.302;2022-11-20T10:25:06;-8.82;65.17
74376;HTU21D;62812;55.188;61.302;2022-11-20T10:27:49;-8.79;65.40
74376;HTU21D;62812;55.188;61.302;2022-11-20T10:30:20;-8.78;65.46
74376;HTU21D;62812;55.188;61.302;2022-11-20T10:32:52;-8.74;65.11
74376;HTU21D;62812;55.188;61.302;2022-11-20T10:35:25;-8.73;65.17
74376;HTU21D;62812;55.188;61.302;2022-11-20T10:37:56;-8.73;65.08
74376;HTU21D;62812;55.188;61.302;2022-11-20T10:40:30;-8.72;65.09
74376;HTU21D;62812;55.188;61.302;2022-11-20T10:43:01;-8.73;64.94
74376;HTU21D;62812;55.188;61.302;2022-11-20T10:45:43;-8.78;65.27
74376;HTU21D;62812;55.188;61.302;2022-11-20T10:48:15;-8.75;65.23
74376;HTU21D;62812;55.188;61.302;2022-11-20T10:50:54;-8.78;65.27
74376;HTU21D;62812;55.188;61.302;2022-11-20T10:56:19;-8.84;65.24
74376;HTU21D;62812;55.188;61.302;2022-11-20T10:58:59;-8.87;65.61
74376;HTU21D;62812;55.188;61.302;2022-11-20T11:01:26;-8.87;65.59
74376;HTU21D;62812;55.188;61.302;2022-11-20T11:03:53;-8.92;65.56
74376;HTU21D;62812;55.188;61.302;2022-11-20T11:06:30;-8.96;65.82
74376;HTU21D;62812;55.188;61.302;2022-11-20T11:09:02;-8.96;65.66
74376;HTU21D;62812;55.188;61.302;2022-11-20T11:11:32;-8.97;65.85
74376;HTU21D;62812;55.188;61.302;2022-11-20T11:14:05;-8.99;65.50
74376;HTU21D;62812;55.188;61.302;2022-11-20T11:16:32;-9.02;66.05
74376;HTU21D;62812;55.188;61.302;2022-11-20T11:19:04;-9.02;66.01
74376;HTU21D;62812;55.188;61.302;2022-11-20T11:21:32;-9.03;65.93
74376;HTU21D;62812;55.188;61.302;2022-11-20T11:24:00;-9.04;65.93
74376;HTU21D;62812;55.188;61.302;2022-11-20T11:26:27;-9.07;65.88
74376;HTU21D;62812;55.188;61.302;2022-11-20T11:28:55;-9.08;65.91
74376;HTU21D;62812;55.188;61.302;2022-11-20T11:31:23;-9.11;66.01
74376;HTU21D;62812;55.188;61.302;2022-11-20T11:33:49;-9.11;65.91
74376;HTU21D;62812;55.188;61.302;2022-11-20T11:36:18;-9.13;65.60
74376;HTU21D;62812;55.188;61.302;2022-11-20T11:38:51;-9.17;65.75
74376;HTU21D;62812;55.188;61.302;2022-11-20T11:41:22;-9.18;65.70
74376;HTU21D;62812;55.188;61.302;2022-11-20T11:43:55;-9.25;65.73
74376;HTU21D;62812;55.188;61.302;2022-11-20T11:46:49;-9.27;65.82
74376;HTU21D;62812;55.188;61.302;2022-11-20T11:49:17;-9.31;65.61
74376;HTU21D;62812;55.188;61.302;2022-11-20T11:52:02;-9.34;65.59
74376;HTU21D;62812;55.188;61.302;2022-11-20T11:54:35;-9.33;65.68
74376;HTU21D;62812;55.188;61.302;2022-11-20T11:57:10;-9.34;65.81
74376;HTU21D;62812;55.188;61.302;2022-11-20T11:59:46;-9.41;65.83
74376;HTU21D;62812;55.188;61.302;2022-11-20T12:02:27;-9.43;65.99
74376;HTU21D;62812;55.188;61.302;2022-11-20T12:04:58;-9.48;66.17
74376;HTU21D;62812;55.188;61.302;2022-11-20T12:07:36;-9.56;66.14
74376;HTU21D;62812;55.188;61.302;2022-11-20T12:10:08;-9.60;66.32
74376;HTU21D;62812;55.188;61.302;2022-11-20T12:12:46;-9.63;66.48
74376;HTU21D;62812;55.188;61.302;2022-11-20T12:15:29;-9.67;66.81
74376;HTU21D;62812;55.188;61.302;2022-11-20T12:17:56;-9.75;66.64
74376;HTU21D;62812;55.188;61.302;2022-11-20T12:20:26;-9.81;66.74
74376;HTU21D;62812;55.188;61.302;2022-11-20T12:22:57;-9.84;67.14
74376;HTU21D;62812;55.188;61.302;2022-11-20T12:25:31;-9.87;67.44
74376;HTU21D;62812;55.188;61.302;2022-11-20T12:28:11;-9.90;67.18
74376;HTU21D;62812;55.188;61.302;2022-11-20T12:30:46;-9.96;67.44
74376;HTU21D;62812;55.188;61.302;2022-11-20T12:33:30;-10.03;67.44
74376;HTU21D;62812;55.188;61.302;2022-11-20T12:36:19;-10.07;67.81
74376;HTU21D;62812;55.188;61.302;2022-11-20T12:39:07;-10.10;68.03
74376;HTU21D;62812;55.188;61.302;2022-11-20T12:42:05;-10.15;68.21
74376;HTU21D;62812;55.188;61.302;2022-11-20T12:45:14;-10.16;68.30
74376;HTU21D;62812;55.188;61.302;2022-11-20T12:48:04;-10.20;68.32
74376;HTU21D;62812;55.188;61.302;2022-11-20T12:50:40;-10.22;68.51
74376;HTU21D;62812;55.188;61.302;2022-11-20T12:53:23;-10.25;68.95
74376;HTU21D;62812;55.188;61.302;2022-11-20T12:55:55;-10.27;68.58
74376;HTU21D;62812;55.188;61.302;2022-11-20T12:58:30;-10.23;68.38
74376;HTU21D;62812;55.188;61.302;2022-11-20T13:01:05;-10.21;68.33
74376;HTU21D;62812;55.188;61.302;2022-11-20T13:03:41;-10.18;68.28
74376;HTU21D;62812;55.188;61.302;2022-11-20T13:06:15;-10.22;68.46
74376;HTU21D;62812;55.188;61.302;2022-11-20T13:08:44;-10.22;68.87
74376;HTU21D;62812;55.188;61.302;2022-11-20T13:11:17;-10.23;68.97
74376;HTU21D;62812;55.188;61.302;2022-11-20T13:13:59;-10.22;68.68
74376;HTU21D;62812;55.188;61.302;2022-11-20T13:16:32;-10.27;68.50
74376;HTU21D;62812;55.188;61.302;2022-11-20T13:19:02;-10.30;68.91
74376;HTU21D;62812;55.188;61.302;2022-11-20T13:21:36;-10.33;69.11
74376;HTU21D;62812;55.188;61.302;2022-11-20T13:24:06;-10.37;69.31
74376;HTU21D;62812;55.188;61.302;2022-11-20T13:26:33;-10.43;69.33
74376;HTU21D;62812;55.188;61.302;2022-11-20T13:29:05;-10.43;69.62
74376;HTU21D;62812;55.188;61.302;2022-11-20T13:31:35;-10.44;69.74
74376;HTU21D;62812;55.188;61.302;2022-11-20T13:34:05;-10.45;69.57
74376;HTU21D;62812;55.188;61.302;2022-11-20T13:36:32;-10.44;70.00
74376;HTU21D;62812;55.188;61.302;2022-11-20T13:39:00;-10.43;69.83
74376;HTU21D;62812;55.188;61.302;2022-11-20T13:41:29;-10.40;69.71
74376;HTU21D;62812;55.188;61.302;2022-11-20T13:44:10;-10.42;69.63
74376;HTU21D;62812;55.188;61.302;2022-11-20T13:46:40;-10.45;69.69
74376;HTU21D;62812;55.188;61.302;2022-11-20T13:49:14;-10.45;69.81
74376;HTU21D;62812;55.188;61.302;2022-11-20T13:51:43;-10.42;69.87
74376;HTU21D;62812;55.188;61.302;2022-11-20T13:54:27;-10.42;69.89
74376;HTU21D;62812;55.188;61.302;2022-11-20T13:57:06;-10.40;69.88
74376;HTU21D;62812;55.188;61.302;2022-11-20T13:59:48;-10.38;69.89
74376;HTU21D;62812;55.188;61.302;2022-11-20T14:02:20;-10.44;69.88
74376;HTU21D;62812;55.188;61.302;2022-11-20T14:04:50;-10.48;69.95
74376;HTU21D;62812;55.188;61.302;2022-11-20T14:07:18;-10.51;69.94
74376;HTU21D;62812;55.188;61.302;2022-11-20T14:09:50;-10.52;70.10
74376;HTU21D;62812;55.188;61.302;2022-11-20T14:12:19;-10.52;70.17
74376;HTU21D;62812;55.188;61.302;2022-11-20T14:14:52;-10.55;69.99
74376;HTU21D;62812;55.188;61.302;2022-11-20T14:17:20;-10.55;69.96
74376;HTU21D;62812;55.188;61.302;2022-11-20T14:19:49;-10.55;69.94
74376;HTU21D;62812;55.188;61.302;2022-11-20T14:22:20;-10.52;70.00
74376;HTU21D;62812;55.188;61.302;2022-11-20T14:24:47;-10.51;69.79
74376;HTU21D;62812;55.188;61.302;2022-11-20T14:27:17;-10.55;69.94
74376;HTU21D;62812;55.188;61.302;2022-11-20T14:29:45;-10.57;70.02
74376;HTU21D;62812;55.188;61.302;2022-11-20T14:32:15;-10.57;70.29
74376;HTU21D;62812;55.188;61.302;2022-11-20T14:34:44;-10.58;70.22
74376;HTU21D;62812;55.188;61.302;2022-11-20T14:37:13;-10.59;70.44
74376;HTU21D;62812;55.188;61.302;2022-11-20T14:39:49;-10.60;70.65
74376;HTU21D;62812;55.188;61.302;2022-11-20T14:42:17;-10.63;70.73
74376;HTU21D;62812;55.188;61.302;2022-11-20T14:45:11;-10.76;70.58
74376;HTU21D;62812;55.188;61.302;2022-11-20T14:47:40;-10.87;71.04
74376;HTU21D;62812;55.188;61.302;2022-11-20T14:50:13;-10.95;71.11
74376;HTU21D;62812;55.188;61.302;2022-11-20T14:53:04;-10.99;71.21
74376;HTU21D;62812;55.188;61.302;2022-11-20T14:55:59;-11.03;71.40
74376;HTU21D;62812;55.188;61.302;2022-11-20T14:58:28;-11.05;71.77
74376;HTU21D;62812;55.188;61.302;2022-11-20T15:00:56;-11.05;71.88
74376;HTU21D;62812;55.188;61.302;2022-11-20T15:03:31;-11.05;72.03
74376;HTU21D;62812;55.188;61.302;2022-11-20T15:05:58;-11.06;72.09
74376;HTU21D;62812;55.188;61.302;2022-11-20T15:08:24;-11.07;72.22
74376;HTU21D;62812;55.188;61.302;2022-11-20T15:10:51;-11.10;72.40
74376;HTU21D;62812;55.188;61.302;2022-11-20T15:13:25;-11.11;72.58